createdAt,value
2019-01-17T00:01:41.663Z,92.99
2019-01-17T00:04:35.049Z,92.91
2019-01-17T00:07:29.034Z,93.07
2019-01-17T00:10:23.135Z,92.70
2019-01-17T00:13:04.643Z,92.62
2019-01-17T00:15:57.387Z,92.55
2019-01-17T00:18:39.578Z,93.04
2019-01-17T00:21:30.316Z,92.91
2019-01-17T00:24:08.113Z,92.95
2019-01-17T00:26:55.102Z,93.20
2019-01-17T00:29:45.654Z,92.89
2019-01-17T00:32:29.056Z,93.12
2019-01-17T00:35:19.781Z,93.18
2019-01-17T00:38:19.840Z,93.08
2019-01-17T00:41:07.662Z,93.40
2019-01-17T00:44:13.805Z,93.34
2019-01-17T00:47:00.250Z,93.40
2019-01-17T00:49:50.597Z,93.99
2019-01-17T00:52:40.533Z,93.85
2019-01-17T00:55:27.529Z,94.11
2019-01-17T00:58:02.844Z,94.16
2019-01-17T01:00:51.233Z,94.07
2019-01-17T01:03:36.890Z,94.20
2019-01-17T01:06:27.886Z,94.37
2019-01-17T01:09:30.870Z,94.06
2019-01-17T01:12:10.674Z,94.05
2019-01-17T01:14:56.833Z,93.84
2019-01-17T01:17:47.916Z,94.26
2019-01-17T01:20:31.556Z,94.09
2019-01-17T01:23:18.248Z,94.26
2019-01-17T01:26:22.116Z,94.19
2019-01-17T01:29:08.928Z,94.14
2019-01-17T01:31:47.406Z,94.12
2019-01-17T01:34:42.335Z,94.27
2019-01-17T01:37:33.175Z,94.09
2019-01-17T01:40:22.853Z,94.20
2019-01-17T01:43:18.651Z,94.11
2019-01-17T01:46:00.411Z,94.04
2019-01-17T01:48:48.184Z,94.07
2019-01-17T01:51:26.315Z,94.30
2019-01-17T01:53:58.233Z,94.37
2019-01-17T01:56:27.721Z,94.37
2019-01-17T01:58:56.561Z,94.29
2019-01-17T02:01:25.932Z,94.18
2019-01-17T02:03:54.737Z,94.01
2019-01-17T02:06:23.790Z,94.07
2019-01-17T02:08:54.918Z,93.87
2019-01-17T02:11:24.699Z,93.97
2019-01-17T02:13:55.042Z,93.74
2019-01-17T02:16:25.043Z,93.62
2019-01-17T02:18:54.804Z,93.92
2019-01-17T02:21:24.938Z,93.85
2019-01-17T02:23:54.816Z,93.86
2019-01-17T02:26:24.708Z,94.03
2019-01-17T02:28:54.338Z,94.03
2019-01-17T02:31:23.969Z,93.90
2019-01-17T02:33:53.866Z,93.85
2019-01-17T02:36:23.611Z,93.97
2019-01-17T02:38:53.029Z,93.64
2019-01-17T02:41:22.897Z,93.13
2019-01-17T02:43:53.021Z,93.18
2019-01-17T02:46:22.778Z,92.49
2019-01-17T02:48:52.296Z,93.04
2019-01-17T02:51:22.539Z,92.83
2019-01-17T02:53:52.059Z,92.55
2019-01-17T02:56:21.585Z,92.66
2019-01-17T02:58:51.101Z,92.69
2019-01-17T03:01:20.502Z,92.74
2019-01-17T03:03:50.143Z,92.78
2019-01-17T03:06:19.666Z,92.70
2019-01-17T03:08:49.185Z,92.79
2019-01-17T03:11:18.587Z,92.61
2019-01-17T03:13:47.988Z,92.57
2019-01-17T03:16:16.777Z,92.87
2019-01-17T03:18:45.956Z,92.43
2019-01-17T03:21:14.815Z,92.33
2019-01-17T03:23:44.117Z,92.48
2019-01-17T03:26:13.634Z,92.56
2019-01-17T03:28:42.426Z,92.16
2019-01-17T03:31:11.542Z,92.31
2019-01-17T03:33:40.377Z,92.10
2019-01-17T03:36:09.204Z,91.98
2019-01-17T03:38:44.146Z,92.35
2019-01-17T03:41:13.903Z,92.02
2019-01-17T03:43:43.644Z,91.77
2019-01-17T03:46:13.310Z,91.99
2019-01-17T03:48:43.055Z,91.91
2019-01-17T03:51:12.806Z,91.62
2019-01-17T03:53:42.699Z,92.19
2019-01-17T03:56:12.331Z,91.97
2019-01-17T03:58:42.335Z,92.11
2019-01-17T04:01:11.979Z,91.91
2019-01-17T04:03:41.865Z,91.71
2019-01-17T04:06:11.522Z,92.15
2019-01-17T04:08:41.014Z,91.56
2019-01-17T04:11:10.537Z,91.78
2019-01-17T04:13:40.059Z,91.58
2019-01-17T04:16:09.820Z,91.55
2019-01-17T04:18:38.587Z,91.33
2019-01-17T04:21:07.356Z,90.80
2019-01-17T04:23:36.493Z,91.41
2019-01-17T04:26:05.559Z,91.69
2019-01-17T04:28:34.642Z,91.62
2019-01-17T04:31:04.735Z,91.45
2019-01-17T04:33:34.397Z,91.47
2019-01-17T04:36:04.160Z,91.06
2019-01-17T04:38:34.626Z,91.12
2019-01-17T04:41:04.507Z,91.08
2019-01-17T04:43:34.261Z,91.37
2019-01-17T04:46:04.391Z,91.44
2019-01-17T04:48:34.265Z,91.12
2019-01-17T04:51:04.264Z,91.18
2019-01-17T04:53:33.808Z,91.44
2019-01-17T04:56:03.305Z,91.46
2019-01-17T04:58:33.312Z,91.57
2019-01-17T05:01:03.190Z,91.31
2019-01-17T05:03:32.036Z,91.08
2019-01-17T05:06:01.015Z,91.12
2019-01-17T05:08:29.805Z,90.94
2019-01-17T05:10:58.611Z,91.07
2019-01-17T05:13:27.499Z,91.21
2019-01-17T05:15:56.619Z,90.44
2019-01-17T05:18:25.427Z,90.58
2019-01-17T05:20:54.225Z,90.93
2019-01-17T05:23:23.295Z,90.72
2019-01-17T05:25:52.067Z,90.63
2019-01-17T05:28:20.938Z,90.83
2019-01-17T05:30:51.098Z,90.45
2019-01-17T05:33:20.858Z,90.47
2019-01-17T05:35:50.059Z,90.15
2019-01-17T05:38:19.326Z,90.31
2019-01-17T05:40:48.577Z,90.09
2019-01-17T05:43:18.882Z,90.05
2019-01-17T05:45:48.766Z,90.11
2019-01-17T05:48:18.404Z,90.39
2019-01-17T05:50:48.405Z,90.43
2019-01-17T05:53:17.929Z,90.42
2019-01-17T05:55:47.448Z,89.67
2019-01-17T05:58:16.848Z,89.57
2019-01-17T06:00:46.250Z,90.06
2019-01-17T06:03:16.012Z,90.14
2019-01-17T06:05:45.892Z,89.98
2019-01-17T06:08:16.134Z,90.16
2019-01-17T06:10:45.778Z,89.82
2019-01-17T06:13:15.894Z,89.91
2019-01-17T06:15:45.776Z,89.71
2019-01-17T06:18:15.537Z,89.80
2019-01-17T06:20:45.298Z,89.16
2019-01-17T06:23:14.939Z,89.26
2019-01-17T06:25:45.181Z,88.97
2019-01-17T06:28:14.942Z,88.61
2019-01-17T06:30:44.824Z,88.46
2019-01-17T06:33:14.823Z,88.18
2019-01-17T06:35:44.828Z,88.37
2019-01-17T06:38:14.585Z,88.30
2019-01-17T06:40:44.345Z,88.45
2019-01-17T06:46:43.392Z,87.86
2019-01-17T06:49:14.109Z,87.95
2019-01-17T06:51:44.152Z,87.86
2019-01-17T06:54:14.148Z,88.06
2019-01-17T06:56:47.112Z,88.21
2019-01-17T06:59:17.145Z,88.14
2019-01-17T07:01:47.861Z,87.64
2019-01-17T07:04:17.986Z,88.11
2019-01-17T07:06:48.588Z,87.88
2019-01-17T07:09:19.429Z,88.10
2019-01-17T07:11:50.147Z,87.54
2019-01-17T07:14:20.632Z,87.60
2019-01-17T07:16:51.469Z,87.40
2019-01-17T07:19:22.432Z,87.24
2019-01-17T07:21:53.392Z,87.59
2019-01-17T07:24:24.712Z,86.99
2019-01-17T07:26:55.552Z,87.31
2019-01-17T07:29:26.870Z,87.03
2019-01-17T07:31:58.190Z,86.10
2019-01-17T07:34:29.391Z,86.61
2019-01-17T07:37:00.112Z,86.74
2019-01-17T07:39:37.672Z,86.17
2019-01-17T07:42:08.149Z,86.25
2019-01-17T07:44:44.874Z,86.05
2019-01-17T07:47:15.867Z,86.24
2019-01-17T07:49:46.432Z,86.01
2019-01-17T07:52:17.395Z,86.16
2019-01-17T07:54:51.112Z,85.97
2019-01-17T07:57:21.470Z,86.37
2019-01-17T07:59:52.322Z,86.33
2019-01-17T08:02:23.030Z,86.00
2019-01-17T08:04:54.112Z,86.06
2019-01-17T08:07:24.597Z,85.50
2019-01-17T08:09:55.192Z,85.33
2019-01-17T08:12:25.430Z,85.26
2019-01-17T08:14:56.159Z,85.39
2019-01-17T08:17:26.878Z,85.83
2019-01-17T08:19:56.634Z,85.67
2019-01-17T08:22:26.396Z,84.88
2019-01-17T08:24:56.392Z,84.78
2019-01-17T08:27:26.874Z,84.80
2019-01-17T08:29:56.754Z,85.08
2019-01-17T08:32:26.875Z,84.79
2019-01-17T08:34:56.514Z,85.32
2019-01-17T08:37:26.155Z,84.73
2019-01-17T08:39:56.155Z,84.70
2019-01-17T08:42:26.278Z,84.40
2019-01-17T08:44:56.038Z,84.47
2019-01-17T08:47:25.809Z,84.49
2019-01-17T08:49:56.897Z,84.59
2019-01-17T08:52:25.941Z,84.15
2019-01-17T08:54:55.433Z,84.06
2019-01-17T08:57:24.619Z,84.12
2019-01-17T08:59:53.753Z,84.23
2019-01-17T09:02:23.222Z,83.35
2019-01-17T09:04:52.679Z,83.53
2019-01-17T09:07:22.074Z,83.35
2019-01-17T09:09:51.237Z,83.37
2019-01-17T09:12:20.515Z,83.59
2019-01-17T09:14:49.697Z,83.41
2019-01-17T09:17:18.954Z,83.89
2019-01-17T09:19:48.137Z,83.02
2019-01-17T09:22:17.186Z,82.80
2019-01-17T09:24:46.796Z,82.14
2019-01-17T09:27:16.197Z,82.35
2019-01-17T09:29:45.257Z,82.55
2019-01-17T09:32:16.564Z,82.13
2019-01-17T09:34:47.062Z,82.33
2019-01-17T09:37:16.465Z,82.71
2019-01-17T09:39:46.800Z,82.96
2019-01-17T09:42:15.982Z,82.99
2019-01-17T09:44:47.055Z,82.82
2019-01-17T09:47:17.176Z,82.60
2019-01-17T09:49:47.062Z,81.98
2019-01-17T09:52:17.616Z,81.72
2019-01-17T09:54:47.784Z,81.68
2019-01-17T09:57:16.820Z,81.41
2019-01-17T09:59:46.078Z,80.54
2019-01-17T10:02:15.504Z,81.28
2019-01-17T10:04:44.907Z,80.47
2019-01-17T10:07:14.178Z,80.37
2019-01-17T10:09:43.678Z,80.90
2019-01-17T10:12:12.860Z,80.83
2019-01-17T10:14:42.850Z,80.70
2019-01-17T10:17:24.988Z,80.33
2019-01-17T10:20:29.236Z,80.78
2019-01-17T10:23:38.639Z,80.37
2019-01-17T10:26:41.424Z,80.12
2019-01-17T10:29:37.222Z,80.10
2019-01-17T10:32:43.464Z,80.45
2019-01-17T10:35:44.523Z,80.64
2019-01-17T10:38:52.110Z,80.55
2019-01-17T10:42:00.277Z,80.56
2019-01-17T10:45:09.363Z,80.72
2019-01-17T10:48:08.803Z,80.02
2019-01-17T10:51:17.924Z,79.72
2019-01-17T10:54:22.248Z,79.89
2019-01-17T10:57:25.969Z,80.01
2019-01-17T11:00:12.290Z,79.57
2019-01-17T11:03:00.890Z,79.88
2019-01-17T11:05:52.251Z,79.48
2019-01-17T11:08:58.252Z,79.72
2019-01-17T11:11:39.055Z,78.56
2019-01-17T11:14:44.936Z,79.08
2019-01-17T11:17:55.616Z,78.65
2019-01-17T11:20:52.140Z,78.45
2019-01-17T11:23:32.338Z,78.33
2019-01-17T11:26:57.780Z,77.99
2019-01-17T11:29:42.660Z,78.39
2019-01-17T11:32:56.701Z,77.95
2019-01-17T11:35:54.428Z,78.70
2019-01-17T11:38:56.465Z,79.03
2019-01-17T11:41:41.711Z,79.11
2019-01-17T11:44:51.908Z,79.05
2019-01-17T11:48:00.907Z,78.83
2019-01-17T11:50:58.150Z,79.15
2019-01-17T11:53:50.229Z,79.23
2019-01-17T11:56:59.114Z,79.07
2019-01-17T11:59:59.593Z,78.80
2019-01-17T12:02:56.357Z,78.99
2019-01-17T12:05:25.878Z,78.72
2019-01-17T12:07:55.036Z,79.36
2019-01-17T12:10:24.558Z,78.78
2019-01-17T12:12:54.199Z,79.42
2019-01-17T12:15:23.719Z,78.93
2019-01-17T12:17:53.004Z,78.51
2019-01-17T12:20:22.162Z,78.04
2019-01-17T12:22:52.782Z,78.02
2019-01-17T12:25:22.163Z,78.17
2019-01-17T12:27:51.445Z,78.60
2019-01-17T12:30:20.727Z,78.84
2019-01-17T12:32:50.128Z,78.66
2019-01-17T12:35:19.412Z,79.05
2019-01-17T12:37:48.569Z,79.31
2019-01-17T12:40:17.969Z,79.03
2019-01-17T12:42:47.733Z,79.11
2019-01-17T12:45:17.373Z,79.70
2019-01-17T12:47:46.896Z,79.96
2019-01-17T12:50:18.572Z,80.26
2019-01-17T12:52:47.860Z,80.60
2019-01-17T12:55:17.135Z,80.72
2019-01-17T12:57:46.776Z,80.63
2019-01-17T13:00:21.097Z,81.33
2019-01-17T13:02:50.379Z,81.29
2019-01-17T13:05:19.541Z,81.01
2019-01-17T13:07:49.060Z,80.82
2019-01-17T13:10:19.303Z,81.31
2019-01-17T13:12:48.583Z,81.45
2019-01-17T13:15:17.984Z,81.68
2019-01-17T13:17:47.266Z,80.69
2019-01-17T13:20:17.388Z,80.35
2019-01-17T13:22:46.789Z,80.08
2019-01-17T13:25:19.068Z,80.33
2019-01-17T13:27:48.713Z,80.15
2019-01-17T13:30:20.270Z,80.66
2019-01-17T13:32:49.793Z,80.46
2019-01-17T13:35:19.195Z,80.55
2019-01-17T13:37:48.473Z,80.79
2019-01-17T13:40:19.918Z,80.90
2019-01-17T13:42:49.195Z,81.02
2019-01-17T13:45:20.040Z,81.56
2019-01-17T13:47:49.556Z,81.27
2019-01-17T13:50:19.679Z,81.36
2019-01-17T13:52:49.562Z,81.25
2019-01-17T13:55:18.840Z,81.29
2019-01-17T13:57:48.122Z,81.14
2019-01-17T14:00:22.682Z,80.83
2019-01-17T14:02:52.444Z,80.81
2019-01-17T14:05:22.324Z,81.04
2019-01-17T14:07:52.008Z,80.86
2019-01-17T14:10:21.487Z,80.58
2019-01-17T14:12:51.008Z,80.81
2019-01-17T14:15:25.570Z,80.47
2019-01-17T14:17:54.970Z,80.72
2019-01-17T14:20:24.614Z,80.73
2019-01-17T14:22:53.893Z,80.59
2019-01-17T14:25:23.293Z,80.90
2019-01-17T14:27:57.494Z,80.70
2019-01-17T14:30:29.054Z,80.67
2019-01-17T14:32:58.336Z,80.43
2019-01-17T14:35:27.616Z,80.88
2019-01-17T14:37:57.257Z,80.35
2019-01-17T14:40:26.906Z,80.81
2019-01-17T14:42:57.022Z,80.61
2019-01-17T14:45:26.421Z,80.48
2019-01-17T14:47:55.701Z,80.93
2019-01-17T14:50:27.263Z,80.89
2019-01-17T14:52:56.545Z,80.93
2019-01-17T14:55:26.307Z,81.23
2019-01-17T14:57:55.826Z,81.31
2019-01-17T15:00:28.229Z,81.42
2019-01-17T15:03:00.268Z,81.64
2019-01-17T15:05:29.670Z,82.14
2019-01-17T15:07:59.071Z,81.65
2019-01-17T15:10:31.954Z,81.79
2019-01-17T15:13:01.233Z,81.39
2019-01-17T15:15:30.999Z,81.32
2019-01-17T15:18:00.275Z,81.72
2019-01-17T15:20:30.070Z,81.53
2019-01-17T15:22:59.317Z,81.31
2019-01-17T15:25:28.599Z,81.49
2019-01-17T15:27:57.999Z,81.21
2019-01-17T15:30:27.638Z,81.29
2019-01-17T15:32:56.921Z,81.48
2019-01-17T15:35:27.044Z,81.52
2019-01-17T15:37:56.322Z,81.23
2019-01-17T15:40:27.644Z,81.09
2019-01-17T15:42:58.080Z,81.33
2019-01-17T15:45:27.527Z,81.44
2019-01-17T15:47:57.046Z,81.11
2019-01-17T15:50:26.567Z,80.87
2019-01-17T15:52:56.448Z,80.81
2019-01-17T15:55:26.452Z,80.84
2019-01-17T15:57:55.971Z,80.62
2019-01-17T16:00:27.772Z,80.75
2019-01-17T16:02:57.653Z,81.01
2019-01-17T16:05:27.531Z,81.18
2019-01-17T16:07:57.175Z,81.55
2019-01-17T16:10:27.178Z,81.59
2019-01-17T16:12:56.696Z,81.27
2019-01-17T16:15:27.550Z,81.95
2019-01-17T16:17:57.061Z,81.81
2019-01-17T16:20:26.581Z,81.45
2019-01-17T16:22:56.465Z,81.43
2019-01-17T16:25:26.463Z,81.08
2019-01-17T16:27:56.584Z,81.28
2019-01-17T16:30:32.228Z,81.06
2019-01-17T16:33:01.985Z,81.49
2019-01-17T16:35:31.866Z,81.28
2019-01-17T16:38:01.628Z,81.63
2019-01-17T16:40:31.628Z,81.32
2019-01-17T16:43:02.471Z,80.72
2019-01-17T16:45:35.657Z,80.77
2019-01-17T16:48:03.674Z,80.97
2019-01-17T16:50:33.316Z,81.75
2019-01-17T16:53:03.075Z,81.54
2019-01-17T16:55:32.839Z,83.63
2019-01-17T16:58:02.960Z,84.71
2019-01-17T17:00:43.996Z,84.53
2019-01-17T17:03:14.000Z,85.12
2019-01-17T17:05:44.005Z,85.36
2019-01-17T17:08:20.747Z,84.94
2019-01-17T17:10:52.934Z,85.31
2019-01-17T17:13:24.478Z,85.19
2019-01-17T17:15:58.545Z,84.81
2019-01-17T17:18:30.125Z,84.52
2019-01-17T17:21:02.896Z,84.10
2019-01-17T17:23:35.651Z,84.10
2019-01-17T17:29:35.160Z,83.77
2019-01-17T17:32:05.638Z,83.94
2019-01-17T17:34:43.893Z,84.00
2019-01-17T17:37:17.029Z,83.91
2019-01-17T17:39:48.606Z,84.13
2019-01-17T17:42:33.334Z,83.78
2019-01-17T17:45:05.500Z,83.99
2019-01-17T17:47:39.850Z,84.55
2019-01-17T17:50:13.911Z,84.76
2019-01-17T17:52:47.629Z,84.90
2019-01-17T17:55:20.307Z,84.66
2019-01-17T17:58:02.275Z,85.01
2019-01-17T18:00:57.983Z,85.70
2019-01-17T18:03:29.398Z,85.64
2019-01-17T18:05:59.997Z,85.71
2019-01-17T18:08:30.847Z,86.40
2019-01-17T18:11:01.797Z,86.30
2019-01-17T18:13:32.401Z,86.46
2019-01-17T18:16:03.156Z,86.83
2019-01-17T18:18:33.844Z,86.98
2019-01-17T18:21:06.230Z,86.01
2019-01-17T18:23:37.350Z,86.24
2019-01-17T18:26:08.185Z,85.74
2019-01-17T18:28:39.845Z,84.88
2019-01-17T18:31:10.604Z,84.92
2019-01-17T18:33:41.291Z,85.19
2019-01-17T18:36:12.505Z,85.39
2019-01-17T18:38:43.954Z,86.02
2019-01-17T18:41:14.895Z,86.32
2019-01-17T18:43:46.938Z,86.72
2019-01-17T18:46:18.141Z,86.77
2019-01-17T18:48:51.142Z,86.66
2019-01-17T18:51:25.468Z,87.90
2019-01-17T18:53:56.670Z,87.13
2019-01-17T18:56:27.497Z,87.53
2019-01-17T18:58:59.065Z,87.43
2019-01-17T19:01:29.455Z,87.45
2019-01-17T19:03:59.649Z,88.02
2019-01-17T19:06:30.532Z,87.63
2019-01-17T19:09:00.490Z,87.52
2019-01-17T19:11:30.247Z,87.12
2019-01-17T19:14:00.370Z,87.95
2019-01-17T19:16:30.248Z,87.33
2019-01-17T19:19:00.129Z,87.71
2019-01-17T19:21:30.130Z,88.87
2019-01-17T19:23:59.789Z,89.04
2019-01-17T19:26:29.533Z,88.82
2019-01-17T19:28:59.182Z,89.14
2019-01-17T19:31:29.055Z,89.04
2019-01-17T19:33:59.056Z,89.09
2019-01-17T19:36:29.059Z,90.01
2019-01-17T19:38:59.320Z,89.74
2019-01-17T19:41:29.067Z,90.39
2019-01-17T19:43:59.540Z,90.92
2019-01-17T19:46:36.291Z,90.54
2019-01-17T19:49:06.273Z,90.52
2019-01-17T20:15:56.943Z,89.25
2019-01-17T20:18:27.189Z,89.71
2019-01-17T20:20:55.957Z,90.96
2019-01-17T20:23:54.272Z,90.91
2019-01-17T20:26:23.556Z,90.93
2019-01-17T20:28:52.798Z,90.81
2019-01-17T20:31:21.857Z,90.56
2019-01-17T20:33:50.665Z,90.84
2019-01-17T20:36:24.363Z,91.03
2019-01-17T20:38:59.888Z,91.00
2019-01-17T20:41:49.255Z,90.38
2019-01-17T20:44:18.278Z,90.09
2019-01-17T20:46:48.392Z,90.31
2019-01-17T20:49:17.220Z,90.48
2019-01-17T20:51:46.081Z,90.31
2019-01-17T20:54:14.965Z,90.59
2019-01-17T20:56:43.756Z,90.93
2019-01-17T20:59:13.741Z,91.34
2019-01-17T21:02:01.917Z,91.17
2019-01-17T21:04:30.726Z,91.14
2019-01-17T21:07:05.489Z,90.87
2019-01-17T21:09:30.046Z,90.84
2019-01-17T21:11:58.909Z,91.16
2019-01-17T21:14:27.960Z,91.09
2019-01-17T21:16:57.023Z,91.27
2019-01-17T21:19:27.012Z,91.05
2019-01-17T21:21:56.090Z,90.94
2019-01-17T21:24:24.960Z,90.16
2019-01-17T21:26:53.814Z,89.74
2019-01-17T21:29:22.684Z,89.49
2019-01-17T21:34:42.735Z,89.80
2019-01-17T21:37:11.488Z,89.61
2019-01-17T21:39:42.446Z,90.22
2019-01-17T21:42:11.286Z,90.34
2019-01-17T21:44:40.699Z,89.88
2019-01-17T21:47:10.660Z,90.24
2019-01-17T21:49:47.521Z,89.86
2019-01-17T21:52:16.555Z,89.50
2019-01-17T21:54:45.533Z,89.61
2019-01-17T22:24:16.849Z,88.19
2019-01-17T22:26:45.951Z,87.64
2019-01-17T22:29:14.838Z,87.90
2019-01-17T22:31:43.630Z,87.44
2019-01-17T22:34:12.557Z,87.93
2019-01-17T22:36:41.657Z,88.55
2019-01-17T22:39:10.936Z,88.27
2019-01-17T22:41:39.933Z,88.64
2019-01-17T22:44:10.436Z,88.46
2019-01-17T22:46:39.571Z,88.24
2019-01-17T22:49:08.855Z,87.70
2019-01-17T22:51:37.797Z,87.04
2019-01-17T22:54:06.651Z,86.79
2019-01-17T22:56:35.573Z,87.19
2019-01-17T22:59:09.196Z,87.47
2019-01-17T23:01:35.548Z,86.58
2019-01-17T23:04:06.219Z,86.85
2019-01-17T23:06:35.211Z,86.95
2019-01-17T23:09:06.450Z,86.90
2019-01-17T23:11:35.355Z,87.04
2019-01-17T23:14:05.599Z,86.40
2019-01-17T23:16:35.061Z,86.07
2019-01-17T23:19:04.447Z,86.41
2019-01-17T23:21:33.613Z,85.99
2019-01-17T23:24:02.734Z,85.87
2019-01-17T23:26:34.019Z,86.08
2019-01-17T23:29:15.916Z,85.43
2019-01-17T23:31:41.973Z,85.96
2019-01-17T23:34:10.919Z,85.58
2019-01-17T23:36:39.791Z,85.38
2019-01-17T23:39:10.830Z,85.16
2019-01-17T23:41:40.183Z,85.20
2019-01-17T23:44:10.058Z,85.11
2019-01-17T23:46:39.295Z,84.65
2019-01-17T23:49:08.216Z,83.99
2019-01-17T23:51:37.510Z,83.84
2019-01-17T23:54:06.461Z,84.44
2019-01-17T23:56:35.494Z,84.09
2019-01-17T23:59:04.763Z,84.45
